Time;durP1;ratioP1;P1;durP2;ratioP2;P2;SDS_P1;SDS_P2;PMS_P1;PMS_P2;Temp;Humidity;BMP_temperature;BMP_pressure;BME280_temperature;BME280_humidity;BME280_pressure;Samples;Min_cycle;Max_cycle;Signal;HPM_P1;HPM_P2
2022/04/20 09:22:12;;;;;;;11.55;5.03;;;;;;;;;;5861817;23;20130;31
2022/04/20 09:25:04;;;;;;;14.65;5.60;;;;;;;;;;4921164;29;20139;-68
2022/04/20 09:27:33;;;;;;;8.48;5.40;;;;;;;;;;4921563;29;20083;-72
2022/04/20 09:30:00;;;;;;;9.05;5.93;;;;;;;;;;4923395;29;20075;-68
2022/04/20 09:32:34;;;;;;;6.65;5.18;;;;;;;;;;4921118;29;20139;-70
2022/04/20 09:35:03;;;;;;;10.73;4.90;;;;;;;;;;4921072;29;20135;-74
2022/04/20 09:37:30;;;;;;;7.80;5.05;;;;;;;;;;4922313;29;20048;-70
2022/04/20 09:39:57;;;;;;;8.15;5.20;;;;;;;;;;4922951;29;20609;-70
2022/04/20 09:42:24;;;;;;;9.32;5.70;;;;;;;;;;4924433;29;20058;-71
2022/04/20 09:45:02;;;;;;;9.20;5.50;;;;;;;;;;4923659;29;20048;-73
2022/04/20 09:50:22;;;;;;;10.70;5.50;;;;;;;;;;4925070;29;20075;-71
2022/04/20 09:52:49;;;;;;;11.65;5.72;;;;;;;;;;4922311;29;20052;-74
2022/04/20 09:55:25;;;;;;;9.88;5.30;;;;;;;;;;4921682;29;20063;-73
2022/04/20 09:57:51;;;;;;;11.98;5.97;;;;;;;;;;4943411;29;20075;-70
2022/04/20 10:00:17;;;;;;;9.35;5.35;;;;;;;;;;4920537;29;20102;-71
2022/04/20 10:02:46;;;;;;;11.27;6.05;;;;;;;;;;4920731;29;20044;-71
2022/04/20 10:05:12;;;;;;;9.38;6.03;;;;;;;;;;4922451;29;20552;-72
2022/04/20 10:07:38;;;;;;;7.78;6.00;;;;;;;;;;4940922;29;20090;-71
2022/04/20 10:10:05;;;;;;;9.00;5.95;;;;;;;;;;4922059;29;20493;-73
2022/04/20 10:12:32;;;;;;;19.90;7.43;;;;;;;;;;4919867;29;20646;-72
2022/04/20 10:17:48;;;;;;;10.88;6.28;;;;;;;;;;4921148;29;20127;-72
2022/04/20 10:20:14;;;;;;;11.52;6.28;;;;;;;;;;4920977;29;20044;-73
2022/04/20 10:22:42;;;;;;;9.07;5.90;;;;;;;;;;4924038;29;20056;-70
2022/04/20 10:25:10;;;;;;;8.98;6.68;;;;;;;;;;4939599;29;20052;-73
2022/04/20 10:27:57;;;;;;;12.68;6.70;;;;;;;;;;4937703;29;20047;-77
2022/04/20 10:30:50;;;;;;;10.38;6.03;;;;;;;;;;4933990;29;20063;-73
2022/04/20 10:33:19;;;;;;;12.70;6.07;;;;;;;;;;4935091;29;20540;-74
2022/04/20 10:35:56;;;;;;;9.43;6.32;;;;;;;;;;4934972;29;20516;-73
2022/04/20 10:38:23;;;;;;;11.05;6.10;;;;;;;;;;4934416;29;20106;-73
2022/04/20 10:41:02;;;;;;;8.93;6.10;;;;;;;;;;4934689;29;20058;-72
2022/04/20 10:43:30;;;;;;;9.57;6.35;;;;;;;;;;4936587;29;20054;-79
2022/04/20 10:46:20;;;;;;;11.15;6.38;;;;;;;;;;4937014;29;20523;-73
2022/04/20 10:48:46;;;;;;;9.32;5.38;;;;;;;;;;4934034;29;20071;-74
2022/04/20 10:51:14;;;;;;;9.38;5.97;;;;;;;;;;4939991;29;20052;-73
2022/04/20 10:53:43;;;;;;;12.55;7.35;;;;;;;;;;4936177;29;20052;-73
2022/04/20 10:56:09;;;;;;;8.02;5.43;;;;;;;;;;4937821;29;20056;-74
2022/04/20 10:58:35;;;;;;;8.40;5.50;;;;;;;;;;4936438;29;20127;-73
2022/04/20 11:01:09;;;;;;;8.93;5.40;;;;;;;;;;4951985;29;20505;-76
2022/04/20 11:03:57;;;;;;;9.52;5.15;;;;;;;;;;4936306;29;20131;-81
2022/04/20 11:06:27;;;;;;;13.73;7.25;;;;;;;;;;4937197;29;20162;-74
2022/04/20 11:08:53;;;;;;;11.88;6.10;;;;;;;;;;4937754;29;20067;-76
2022/04/20 11:19:52;;;;;;;11.02;6.65;;;;;;;;;;4934150;29;20047;-76
2022/04/20 11:22:19;;;;;;;7.40;4.97;;;;;;;;;;4933830;29;20132;-73
2022/04/20 11:24:45;;;;;;;6.20;4.18;;;;;;;;;;4935475;29;20048;-81
2022/04/20 11:27:12;;;;;;;8.68;4.60;;;;;;;;;;4937213;29;20492;-79
2022/04/20 11:29:42;;;;;;;7.25;4.28;;;;;;;;;;4939450;29;20242;-77
2022/04/20 11:32:10;;;;;;;9.68;5.55;;;;;;;;;;4950039;29;20581;-79
2022/04/20 11:34:38;;;;;;;7.63;5.90;;;;;;;;;;4938711;29;20496;-76
2022/04/20 11:37:09;;;;;;;10.38;7.30;;;;;;;;;;4938336;29;20043;-80
2022/04/20 11:39:36;;;;;;;12.30;8.40;;;;;;;;;;4936364;29;20064;-78
2022/04/20 11:42:04;;;;;;;13.85;8.63;;;;;;;;;;4940630;29;20039;-78
2022/04/20 11:44:34;;;;;;;12.25;8.38;;;;;;;;;;4956471;29;20114;-74
2022/04/20 11:47:07;;;;;;;11.30;8.20;;;;;;;;;;4938999;29;20152;-76
2022/04/20 11:49:42;;;;;;;10.23;8.25;;;;;;;;;;4938192;29;20044;-73
2022/04/20 11:52:11;;;;;;;11.57;8.20;;;;;;;;;;4938802;29;20067;-80
2022/04/20 11:54:38;;;;;;;15.65;8.50;;;;;;;;;;4937591;29;20086;-80
2022/04/20 11:57:10;;;;;;;10.43;8.18;;;;;;;;;;4936088;29;20054;-76
2022/04/20 11:59:50;;;;;;;11.20;7.20;;;;;;;;;;4933863;29;20115;-80
2022/04/20 12:02:19;;;;;;;12.10;7.38;;;;;;;;;;4930894;29;20047;-79
2022/04/20 12:04:48;;;;;;;13.43;7.88;;;;;;;;;;4939091;29;20108;-77
2022/04/20 12:07:16;;;;;;;11.48;6.60;;;;;;;;;;4936175;29;20046;-74
2022/04/20 12:09:45;;;;;;;10.27;6.78;;;;;;;;;;4937667;29;20075;-78
2022/04/20 12:12:18;;;;;;;10.35;6.03;;;;;;;;;;4935402;29;20075;-76
2022/04/20 12:14:46;;;;;;;6.50;4.95;;;;;;;;;;4934654;29;20059;-75
2022/04/20 12:17:20;;;;;;;7.60;4.97;;;;;;;;;;4936412;29;20073;-74
2022/04/20 12:19:48;;;;;;;12.52;5.45;;;;;;;;;;4937439;29;20059;-77
2022/04/20 12:22:17;;;;;;;9.30;5.32;;;;;;;;;;4937305;29;20055;-77
2022/04/20 12:24:43;;;;;;;11.23;5.90;;;;;;;;;;4938533;29;20108;-77
2022/04/20 12:27:16;;;;;;;7.32;5.60;;;;;;;;;;4937396;29;20082;-80
2022/04/20 12:29:43;;;;;;;9.40;7.10;;;;;;;;;;4938698;29;20457;-78
2022/04/20 12:32:09;;;;;;;9.27;6.60;;;;;;;;;;4938202;29;20135;-75
2022/04/20 12:34:35;;;;;;;10.25;6.50;;;;;;;;;;4940605;29;20063;-72
2022/04/20 12:37:13;;;;;;;8.48;6.30;;;;;;;;;;4936921;29;20048;-75
2022/04/20 12:39:44;;;;;;;10.40;7.20;;;;;;;;;;4953993;29;20122;-72
2022/04/20 12:42:17;;;;;;;11.23;7.28;;;;;;;;;;4935532;29;20108;-70
2022/04/20 12:44:51;;;;;;;10.30;7.10;;;;;;;;;;4935347;29;20551;-74
2022/04/20 12:47:17;;;;;;;;;;;;;;;;;;4935278;29;20094;-71
2022/04/20 12:49:53;;;;;;;8.32;6.10;;;;;;;;;;4935194;29;19966;-73
2022/04/20 12:52:27;;;;;;;8.02;5.78;;;;;;;;;;4934358;29;20094;-74
2022/04/20 12:55:06;;;;;;;8.57;6.03;;;;;;;;;;4935177;29;20130;-72
2022/04/20 13:03:17;;;;;;;7.22;5.43;;;;;;;;;;4935499;29;20126;-75
2022/04/20 13:05:44;;;;;;;8.30;6.07;;;;;;;;;;4936326;29;20059;-73
2022/04/20 13:08:13;;;;;;;10.70;5.55;;;;;;;;;;4937376;29;20048;-72
2022/04/20 13:10:41;;;;;;;8.82;5.78;;;;;;;;;;4935885;29;20044;-72
2022/04/20 13:13:07;;;;;;;5.45;4.60;;;;;;;;;;4935069;29;20048;-75
2022/04/20 13:15:34;;;;;;;9.10;5.00;;;;;;;;;;4934212;29;20059;-75
2022/04/20 13:18:00;;;;;;;5.60;4.85;;;;;;;;;;4936238;29;20044;-70
2022/04/20 13:20:28;;;;;;;7.70;5.05;;;;;;;;;;4935644;29;20555;-72
2022/04/20 13:22:58;;;;;;;5.57;4.00;;;;;;;;;;4936481;29;20063;-75
2022/04/20 13:28:10;;;;;;;6.72;4.10;;;;;;;;;;4934278;29;20533;-72
2022/04/20 13:30:38;;;;;;;4.82;3.80;;;;;;;;;;4935354;29;20090;-70
2022/04/20 13:33:11;;;;;;;9.70;4.40;;;;;;;;;;4934706;29;20051;-72
2022/04/20 13:35:38;;;;;;;5.03;3.47;;;;;;;;;;4948067;29;20044;-74
2022/04/20 13:38:09;;;;;;;6.88;3.20;;;;;;;;;;4933303;29;20048;-73
2022/04/20 13:40:38;;;;;;;3.35;2.60;;;;;;;;;;4934961;29;20052;-77
2022/04/20 13:43:06;;;;;;;8.45;2.88;;;;;;;;;;4935111;29;20067;-72
2022/04/20 13:45:32;;;;;;;4.75;2.60;;;;;;;;;;4938392;29;20071;-74
2022/04/20 13:47:58;;;;;;;7.65;3.30;;;;;;;;;;4938171;29;20051;-78
2022/04/20 13:50:24;;;;;;;6.72;3.03;;;;;;;;;;4932822;29;20114;-75
2022/04/20 13:52:53;;;;;;;4.25;2.60;;;;;;;;;;4931266;29;20401;-74
2022/04/20 13:55:19;;;;;;;5.25;3.33;;;;;;;;;;4931307;29;20055;-74
2022/04/20 13:57:49;;;;;;;5.05;3.53;;;;;;;;;;4931788;29;20653;-74
2022/04/20 14:00:15;;;;;;;5.57;3.20;;;;;;;;;;4932722;29;20416;-74
2022/04/20 14:02:41;;;;;;;6.63;3.30;;;;;;;;;;4932141;29;20075;-73
2022/04/20 14:05:08;;;;;;;6.25;3.63;;;;;;;;;;4932799;29;20090;-73
2022/04/20 14:07:35;;;;;;;6.32;3.38;;;;;;;;;;4931748;29;20509;-71
2022/04/20 14:10:02;;;;;;;7.93;3.35;;;;;;;;;;4933823;29;20043;-73
2022/04/20 14:12:29;;;;;;;5.13;2.75;;;;;;;;;;4934113;29;20703;-74
2022/04/20 14:14:59;;;;;;;5.05;2.70;;;;;;;;;;4932668;29;20040;-76
2022/04/20 14:17:24;;;;;;;4.72;2.40;;;;;;;;;;4934402;29;20072;-78
2022/04/20 14:19:50;;;;;;;4.95;2.97;;;;;;;;;;4934721;29;20051;-76
2022/04/20 14:22:17;;;;;;;4.65;2.67;;;;;;;;;;4934825;29;20417;-77
2022/04/20 14:24:44;;;;;;;3.63;2.50;;;;;;;;;;4934098;29;20587;-73
2022/04/20 14:32:40;;;;;;;2.28;1.30;;;;;;;;;;4937895;29;20472;-73
2022/04/20 14:35:07;;;;;;;2.25;1.27;;;;;;;;;;4956737;28;20102;-74
2022/04/20 14:37:33;;;;;;;6.50;1.40;;;;;;;;;;4955112;28;20469;-70
2022/04/20 14:39:59;;;;;;;2.63;1.60;;;;;;;;;;4954114;28;20110;-72
2022/04/20 14:42:25;;;;;;;2.30;1.17;;;;;;;;;;4944682;28;20051;-71
2022/04/20 14:44:51;;;;;;;2.78;1.25;;;;;;;;;;4933461;29;20123;-74
2022/04/20 14:47:17;;;;;;;4.18;1.75;;;;;;;;;;4948289;29;20460;-76
2022/04/20 14:49:44;;;;;;;2.92;1.50;;;;;;;;;;4933901;29;20112;-67
2022/04/20 14:52:12;;;;;;;2.40;1.40;;;;;;;;;;4930398;29;20055;-76
2022/04/20 14:54:42;;;;;;;2.75;1.45;;;;;;;;;;4932189;29;20074;-70
2022/04/20 14:57:09;;;;;;;5.80;1.40;;;;;;;;;;4935382;29;20107;-73
2022/04/20 14:59:35;;;;;;;4.00;1.67;;;;;;;;;;4936839;29;20052;-76
2022/04/20 15:02:03;;;;;;;3.50;1.70;;;;;;;;;;4934670;29;20182;-72
2022/04/20 15:04:31;;;;;;;4.13;1.60;;;;;;;;;;4934477;29;20043;-71
2022/04/20 15:06:59;;;;;;;3.88;1.70;;;;;;;;;;4933160;29;20079;-72
2022/04/20 15:09:26;;;;;;;3.42;1.40;;;;;;;;;;4933217;29;20047;-69
2022/04/20 15:11:55;;;;;;;2.72;1.35;;;;;;;;;;4932359;29;20529;-72
2022/04/20 15:14:21;;;;;;;3.08;1.52;;;;;;;;;;4930863;29;20052;-70
2022/04/20 15:16:47;;;;;;;2.47;1.35;;;;;;;;;;4932281;29;20059;-71
2022/04/20 15:19:16;;;;;;;5.10;1.92;;;;;;;;;;4933284;29;20066;-71
2022/04/20 15:21:43;;;;;;;5.28;1.90;;;;;;;;;;4931375;29;20067;-72
2022/04/20 15:24:09;;;;;;;4.72;1.70;;;;;;;;;;4935446;29;20099;-74
2022/04/20 15:26:36;;;;;;;4.95;2.17;;;;;;;;;;4934862;29;20512;-76
2022/04/20 15:29:02;;;;;;;2.97;2.08;;;;;;;;;;4932604;29;20674;-72
2022/04/20 15:31:29;;;;;;;5.82;2.40;;;;;;;;;;4929770;29;20155;-74
2022/04/20 15:33:56;;;;;;;3.42;1.90;;;;;;;;;;4929008;29;20405;-73
2022/04/20 15:36:21;;;;;;;4.15;1.98;;;;;;;;;;4931464;29;20059;-74
2022/04/20 15:38:49;;;;;;;5.13;2.00;;;;;;;;;;4932093;29;20573;-73
2022/04/20 15:41:17;;;;;;;5.85;2.33;;;;;;;;;;4925534;29;20126;-73
2022/04/20 15:43:43;;;;;;;5.72;1.75;;;;;;;;;;4932945;29;20047;-73
2022/04/20 15:46:10;;;;;;;3.10;1.70;;;;;;;;;;4940813;29;20043;-72
2022/04/20 15:48:37;;;;;;;6.32;1.95;;;;;;;;;;4934382;29;20716;-72
2022/04/20 15:51:04;;;;;;;3.72;1.70;;;;;;;;;;4933397;29;20043;-74
2022/04/20 15:53:31;;;;;;;3.97;1.65;;;;;;;;;;4934581;29;20044;-74
2022/04/20 16:01:26;;;;;;;4.72;1.75;;;;;;;;;;4932468;29;19927;-79
2022/04/20 16:03:53;;;;;;;7.07;2.40;;;;;;;;;;4934272;29;20119;-75
2022/04/20 16:06:20;;;;;;;3.83;1.50;;;;;;;;;;4933760;29;20446;-79
2022/04/20 16:08:47;;;;;;;5.85;1.70;;;;;;;;;;4931529;29;20047;-74
2022/04/20 16:11:15;;;;;;;3.60;1.52;;;;;;;;;;4932644;29;20070;-72
2022/04/20 16:13:41;;;;;;;3.25;1.73;;;;;;;;;;4932955;29;20096;-73
2022/04/20 16:16:07;;;;;;;7.70;1.40;;;;;;;;;;4946824;29;21008;-74
2022/04/20 16:18:33;;;;;;;4.80;1.80;;;;;;;;;;4934508;29;20044;-71
2022/04/20 16:21:04;;;;;;;2.97;2.00;;;;;;;;;;4950558;29;20426;-73
2022/04/20 16:23:30;;;;;;;3.83;1.50;;;;;;;;;;4935443;29;20070;-71
2022/04/20 16:25:57;;;;;;;3.63;1.55;;;;;;;;;;4935876;29;20091;-71
2022/04/20 16:28:23;;;;;;;4.28;2.05;;;;;;;;;;4934827;29;20480;-72
2022/04/20 16:30:49;;;;;;;4.07;1.63;;;;;;;;;;4935940;29;20047;-72
2022/04/20 16:33:19;;;;;;;4.38;1.63;;;;;;;;;;4935091;29;20059;-72
2022/04/20 16:35:46;;;;;;;3.60;1.63;;;;;;;;;;4933775;29;20056;-72
2022/04/20 16:38:12;;;;;;;5.43;2.10;;;;;;;;;;4937477;29;20039;-68
2022/04/20 16:40:39;;;;;;;4.00;1.95;;;;;;;;;;4939449;29;20111;-71
2022/04/20 16:43:05;;;;;;;4.93;1.92;;;;;;;;;;4935822;29;20059;-71
2022/04/20 16:45:31;;;;;;;3.80;1.50;;;;;;;;;;4938884;29;20048;-71
2022/04/20 16:47:58;;;;;;;2.50;1.25;;;;;;;;;;4933242;29;20126;-68
2022/04/20 16:50:25;;;;;;;5.20;1.50;;;;;;;;;;4932933;29;20048;-72
2022/04/20 16:52:52;;;;;;;2.10;1.10;;;;;;;;;;4932795;29;20063;-71
2022/04/20 16:55:18;;;;;;;3.40;1.30;;;;;;;;;;4932486;29;20059;-72
2022/04/20 16:57:44;;;;;;;4.57;1.35;;;;;;;;;;4932832;29;20375;-73
2022/04/20 17:00:12;;;;;;;3.15;1.58;;;;;;;;;;4933131;29;20050;-80
2022/04/20 17:02:41;;;;;;;1.98;1.10;;;;;;;;;;4934940;29;20087;-75
2022/04/20 17:05:08;;;;;;;3.13;1.50;;;;;;;;;;4936737;29;20052;-76
2022/04/20 17:07:34;;;;;;;4.32;1.65;;;;;;;;;;4932596;29;20075;-74
2022/04/20 17:10:00;;;;;;;2.53;1.23;;;;;;;;;;4933089;29;20057;-71
2022/04/20 17:12:26;;;;;;;1.83;1.10;;;;;;;;;;4935591;29;20056;-74
2022/04/20 17:14:52;;;;;;;3.00;1.60;;;;;;;;;;4931888;29;20047;-75
2022/04/20 17:17:19;;;;;;;2.67;1.20;;;;;;;;;;4935346;29;20398;-72
2022/04/20 17:19:45;;;;;;;2.50;1.35;;;;;;;;;;4929748;29;20058;-72
2022/04/20 17:27:40;;;;;;;2.58;1.15;;;;;;;;;;4931458;29;19926;-73
2022/04/20 17:30:07;;;;;;;3.55;1.50;;;;;;;;;;4943103;29;20094;-72
2022/04/20 17:32:33;;;;;;;2.15;1.50;;;;;;;;;;4931614;29;20060;-76
2022/04/20 17:37:44;;;;;;;1.92;1.40;;;;;;;;;;4942037;28;20052;-77
2022/04/20 17:40:10;;;;;;;3.33;1.58;;;;;;;;;;4938439;29;20660;-73
2022/04/20 17:42:37;;;;;;;2.03;1.30;;;;;;;;;;4937480;29;20483;-73
2022/04/20 17:45:04;;;;;;;3.10;1.20;;;;;;;;;;4939679;29;20059;-76
2022/04/20 17:47:30;;;;;;;3.72;1.13;;;;;;;;;;4937607;29;20047;-71
2022/04/20 17:49:55;;;;;;;4.85;1.30;;;;;;;;;;4936587;29;20055;-69
2022/04/20 17:52:22;;;;;;;2.75;1.30;;;;;;;;;;4937807;29;20157;-74
2022/04/20 17:54:48;;;;;;;1.85;1.30;;;;;;;;;;4937684;29;20043;-73
2022/04/20 17:57:14;;;;;;;2.60;1.35;;;;;;;;;;4936195;29;20047;-73
2022/04/20 17:59:41;;;;;;;2.38;1.20;;;;;;;;;;4936782;29;20098;-77
2022/04/20 18:02:08;;;;;;;2.65;1.30;;;;;;;;;;4935213;29;20111;-75
2022/04/20 18:04:34;;;;;;;2.00;1.30;;;;;;;;;;4935374;29;20062;-74
2022/04/20 18:07:01;;;;;;;2.08;1.30;;;;;;;;;;4933084;29;20055;-77
2022/04/20 18:09:26;;;;;;;3.42;1.05;;;;;;;;;;4935698;29;20058;-76
2022/04/20 18:11:55;;;;;;;3.67;1.30;;;;;;;;;;4934727;29;20433;-72
2022/04/20 18:14:27;;;;;;;1.60;0.73;;;;;;;;;;4932606;29;20055;-72
2022/04/20 18:16:53;;;;;;;1.70;0.88;;;;;;;;;;4948709;29;20370;-73
2022/04/20 18:19:23;;;;;;;1.65;0.75;;;;;;;;;;4918400;29;20058;-72
2022/04/20 18:21:51;;;;;;;2.08;0.90;;;;;;;;;;4932633;29;20102;-72
2022/04/20 18:24:20;;;;;;;1.55;0.70;;;;;;;;;;4934544;29;20143;-73
2022/04/20 18:26:55;;;;;;;1.00;0.70;;;;;;;;;;4933050;29;20067;-73
2022/04/20 18:29:21;;;;;;;0.52;0.50;;;;;;;;;;4930618;29;20863;-75
2022/04/20 18:31:48;;;;;;;3.80;2.08;;;;;;;;;;4933162;29;20067;-72
2022/04/20 18:34:14;;;;;;;2.90;0.85;;;;;;;;;;4933044;29;20095;-75
2022/04/20 18:36:40;;;;;;;6.65;0.95;;;;;;;;;;4933621;29;20044;-73
2022/04/20 18:39:06;;;;;;;1.80;0.70;;;;;;;;;;4934395;29;20087;-72
2022/04/20 18:41:34;;;;;;;7.20;1.10;;;;;;;;;;4933607;29;20047;-74
2022/04/20 18:44:04;;;;;;;7.10;0.90;;;;;;;;;;4932672;29;20055;-73
2022/04/20 18:46:33;;;;;;;1.67;0.73;;;;;;;;;;4934961;29;20458;-69
2022/04/20 18:49:00;;;;;;;5.18;1.13;;;;;;;;;;4934396;29;20043;-71
2022/04/20 18:51:26;;;;;;;6.28;1.25;;;;;;;;;;4934374;29;20075;-70
2022/04/20 18:59:22;;;;;;;5.40;1.20;;;;;;;;;;4933501;29;20052;-71
2022/04/20 19:01:47;;;;;;;9.18;1.45;;;;;;;;;;4932427;29;20055;-69
2022/04/20 19:06:58;;;;;;;;;;;;;;;;;;4933108;29;20079;-72
2022/04/20 19:09:24;;;;;;;6.53;1.45;;;;;;;;;;4931672;29;20340;-69
2022/04/20 19:11:50;;;;;;;6.07;1.45;;;;;;;;;;4931295;29;20052;-68
2022/04/20 19:14:17;;;;;;;8.07;1.60;;;;;;;;;;4931815;29;20398;-66
2022/04/20 19:16:42;;;;;;;9.20;1.60;;;;;;;;;;4931404;29;20087;-68
2022/04/20 19:19:08;;;;;;;8.10;1.48;;;;;;;;;;4932233;29;20114;-67
2022/04/20 19:21:36;;;;;;;8.85;1.60;;;;;;;;;;4931137;29;20043;-68
2022/04/20 19:24:03;;;;;;;9.88;1.50;;;;;;;;;;4932382;29;20126;-69
2022/04/20 19:26:29;;;;;;;10.75;1.60;;;;;;;;;;4930919;29;20391;-70
2022/04/20 19:28:56;;;;;;;6.13;1.45;;;;;;;;;;4931751;29;20048;-69
2022/04/20 19:31:22;;;;;;;9.90;1.70;;;;;;;;;;4932427;29;20826;-69
2022/04/20 19:33:49;;;;;;;6.22;1.30;;;;;;;;;;4931432;29;20039;-68
2022/04/20 19:36:16;;;;;;;4.68;1.35;;;;;;;;;;4930434;29;20051;-70
2022/04/20 19:38:42;;;;;;;5.90;1.50;;;;;;;;;;4930228;29;20405;-70
2022/04/20 19:41:08;;;;;;;8.48;1.55;;;;;;;;;;4932376;29;20047;-69
2022/04/20 19:43:35;;;;;;;7.45;1.73;;;;;;;;;;4931547;29;20048;-70
2022/04/20 19:46:00;;;;;;;14.63;1.80;;;;;;;;;;4932623;29;20047;-69
2022/04/20 19:48:26;;;;;;;11.07;2.30;;;;;;;;;;4931415;29;20050;-70
2022/04/20 19:50:52;;;;;;;10.70;1.30;;;;;;;;;;4931119;29;20056;-69
2022/04/20 19:53:22;;;;;;;4.63;1.35;;;;;;;;;;4934310;29;20142;-70
2022/04/20 19:55:48;;;;;;;7.13;1.50;;;;;;;;;;4928630;29;20152;-70
2022/04/20 19:58:15;;;;;;;6.30;1.73;;;;;;;;;;4913637;29;20056;-69
2022/04/20 20:00:41;;;;;;;8.40;1.70;;;;;;;;;;4914534;29;20078;-69
2022/04/20 20:03:16;;;;;;;7.38;1.75;;;;;;;;;;4914878;29;20525;-71
2022/04/20 20:05:43;;;;;;;12.85;1.75;;;;;;;;;;4913951;29;20055;-68
2022/04/20 20:08:09;;;;;;;6.30;1.42;;;;;;;;;;4914269;29;20357;-69
2022/04/20 20:10:38;;;;;;;6.00;1.83;;;;;;;;;;4913114;29;20048;-69
2022/04/20 20:13:05;;;;;;;11.23;2.00;;;;;;;;;;4911546;29;20478;-70
2022/04/20 20:15:31;;;;;;;7.70;2.33;;;;;;;;;;4913508;29;20135;-68
2022/04/20 20:17:58;;;;;;;7.07;2.00;;;;;;;;;;4913694;29;20127;-68
2022/04/20 20:20:28;;;;;;;10.38;2.30;;;;;;;;;;4912905;29;20514;-65
2022/04/20 20:31:07;;;;;;;8.27;2.80;;;;;;;;;;4912693;29;20075;-65
2022/04/20 20:33:36;;;;;;;17.90;4.47;;;;;;;;;;4912956;29;20115;-69
2022/04/20 20:36:02;;;;;;;13.02;2.70;;;;;;;;;;4910884;29;20106;-68
2022/04/20 20:38:28;;;;;;;8.93;2.75;;;;;;;;;;4912920;29;20126;-68
2022/04/20 20:40:54;;;;;;;11.93;2.72;;;;;;;;;;4913018;29;20497;-67
2022/04/20 20:43:21;;;;;;;10.48;3.00;;;;;;;;;;4912937;29;20553;-69
2022/04/20 20:45:47;;;;;;;7.82;2.38;;;;;;;;;;4931037;29;20055;-68
2022/04/20 20:50:33;;;;;;;8.68;1.90;;;;;;;;;;4933323;29;20048;-67
2022/04/20 20:51:01;;;;;;;6.80;2.03;;;;;;;;;;4940212;28;20062;-65
2022/04/20 20:53:27;;;;;;;7.22;1.75;;;;;;;;;;4951526;28;20043;-67
2022/04/20 20:55:52;;;;;;;6.68;1.95;;;;;;;;;;4950125;28;20066;-66
2022/04/20 20:58:19;;;;;;;5.43;1.60;;;;;;;;;;4952187;28;20047;-66
2022/04/20 21:00:46;;;;;;;2.88;1.40;;;;;;;;;;4952169;29;20196;-69
2022/04/20 21:03:12;;;;;;;1.40;0.93;;;;;;;;;;4952561;29;20138;-67
2022/04/20 21:05:38;;;;;;;1.90;1.02;;;;;;;;;;4950339;29;20059;-70
2022/04/20 21:08:04;;;;;;;3.10;1.13;;;;;;;;;;4950066;29;20461;-71
2022/04/20 21:10:30;;;;;;;3.10;1.30;;;;;;;;;;4951232;28;20043;-67
2022/04/20 21:12:56;;;;;;;1.77;1.13;;;;;;;;;;4949069;28;20055;-68
2022/04/20 21:15:22;;;;;;;1.83;1.25;;;;;;;;;;4950808;29;20073;-68
2022/04/20 21:17:48;;;;;;;1.90;1.20;;;;;;;;;;4951221;28;20565;-67
2022/04/20 21:20:14;;;;;;;2.55;1.10;;;;;;;;;;4950703;28;20071;-67
2022/04/20 21:22:43;;;;;;;1.60;1.10;;;;;;;;;;4966579;28;20086;-66
2022/04/20 21:25:11;;;;;;;4.07;0.90;;;;;;;;;;4951655;28;20043;-67
2022/04/20 21:27:38;;;;;;;1.63;1.20;;;;;;;;;;4951868;28;20497;-66
2022/04/20 21:30:04;;;;;;;1.33;0.80;;;;;;;;;;4952119;28;20047;-64
2022/04/20 21:32:30;;;;;;;1.92;0.90;;;;;;;;;;4953149;28;20082;-65
2022/04/20 21:34:56;;;;;;;0.95;0.80;;;;;;;;;;4939671;28;20060;-66
2022/04/20 21:37:22;;;;;;;1.45;0.90;;;;;;;;;;4933040;29;20058;-66
2022/04/20 21:39:48;;;;;;;0.90;0.80;;;;;;;;;;4933443;29;20059;-66
2022/04/20 21:42:14;;;;;;;4.65;1.20;;;;;;;;;;4932880;29;20079;-66
2022/04/20 21:44:41;;;;;;;1.45;0.90;;;;;;;;;;4932850;29;20074;-66
2022/04/20 21:47:07;;;;;;;2.40;1.17;;;;;;;;;;4932073;29;20054;-64
2022/04/20 21:49:34;;;;;;;0.65;0.50;;;;;;;;;;4931784;29;20043;-67
2022/04/20 21:52:00;;;;;;;0.90;0.70;;;;;;;;;;4931110;29;20187;-67
2022/04/20 21:54:27;;;;;;;0.50;0.50;;;;;;;;;;4932592;29;20497;-64
2022/04/20 21:56:53;;;;;;;0.70;0.70;;;;;;;;;;4932148;29;20058;-68
2022/04/20 21:59:19;;;;;;;0.98;0.80;;;;;;;;;;4932211;29;20051;-65
2022/04/20 22:01:48;;;;;;;1.20;1.10;;;;;;;;;;4931874;29;20060;-66
2022/04/20 22:09:52;;;;;;;3.05;0.47;;;;;;;;;;4932232;29;20079;-66
2022/04/20 22:12:18;;;;;;;0.50;0.50;;;;;;;;;;4932058;29;20059;-67
2022/04/20 22:14:52;;;;;;;1.15;0.70;;;;;;;;;;4931359;29;20115;-67
2022/04/20 22:17:20;;;;;;;0.50;0.40;;;;;;;;;;4933024;29;20453;-68
2022/04/20 22:19:46;;;;;;;0.40;0.40;;;;;;;;;;4932876;29;20482;-68
2022/04/20 22:22:12;;;;;;;0.93;0.47;;;;;;;;;;4934239;29;20120;-64
2022/04/20 22:24:38;;;;;;;1.02;0.70;;;;;;;;;;4930055;29;20060;-65
2022/04/20 22:27:05;;;;;;;0.75;0.50;;;;;;;;;;4916929;29;20139;-65
2022/04/20 22:29:34;;;;;;;0.95;0.50;;;;;;;;;;4917290;29;20044;-66
2022/04/20 22:32:01;;;;;;;0.52;0.52;;;;;;;;;;4916651;29;20044;-65
2022/04/20 22:34:30;;;;;;;0.50;0.50;;;;;;;;;;4917276;29;20050;-65
2022/04/20 22:36:56;;;;;;;1.45;0.70;;;;;;;;;;4916759;29;20055;-66
2022/04/20 22:39:23;;;;;;;0.70;0.60;;;;;;;;;;4915356;29;20056;-66
2022/04/20 22:41:51;;;;;;;1.40;0.80;;;;;;;;;;4915919;29;20048;-66
2022/04/20 22:44:22;;;;;;;1.33;0.82;;;;;;;;;;4916329;29;20063;-67
2022/04/20 22:46:48;;;;;;;0.65;0.65;;;;;;;;;;4916674;29;20127;-65
2022/04/20 22:49:14;;;;;;;1.33;0.88;;;;;;;;;;4915949;29;20124;-67
2022/04/20 22:51:44;;;;;;;2.50;0.80;;;;;;;;;;4915197;29;20497;-68
2022/04/20 22:54:11;;;;;;;1.75;0.80;;;;;;;;;;4916803;29;20519;-65
2022/04/20 22:56:41;;;;;;;1.05;0.65;;;;;;;;;;4917165;29;20499;-67
2022/04/20 22:59:08;;;;;;;1.33;0.80;;;;;;;;;;4916350;29;20071;-65
2022/04/20 23:01:35;;;;;;;1.08;0.65;;;;;;;;;;4917405;29;20417;-67
2022/04/20 23:04:00;;;;;;;0.40;0.40;;;;;;;;;;4917028;29;20110;-66
2022/04/20 23:06:28;;;;;;;0.50;0.50;;;;;;;;;;4915588;29;20040;-66
2022/04/20 23:08:54;;;;;;;1.38;0.68;;;;;;;;;;4916435;29;20516;-66
2022/04/20 23:11:20;;;;;;;1.70;0.60;;;;;;;;;;4914621;29;20048;-67
2022/04/20 23:13:46;;;;;;;0.60;0.50;;;;;;;;;;4920457;29;20130;-65
2022/04/20 23:16:12;;;;;;;0.50;0.50;;;;;;;;;;4935650;29;20078;-68
2022/04/20 23:18:38;;;;;;;1.48;0.65;;;;;;;;;;4935539;29;20308;-66
2022/04/20 23:21:04;;;;;;;0.60;0.50;;;;;;;;;;4936358;29;20056;-66
2022/04/20 23:23:31;;;;;;;0.60;0.60;;;;;;;;;;4936666;29;20052;-67
2022/04/20 23:28:42;;;;;;;1.35;0.60;;;;;;;;;;4938420;29;20062;-70
2022/04/20 23:31:08;;;;;;;0.90;0.50;;;;;;;;;;4938334;29;20052;-66
2022/04/20 23:33:36;;;;;;;0.52;0.40;;;;;;;;;;4934469;29;20517;-65
2022/04/20 23:36:03;;;;;;;0.73;0.60;;;;;;;;;;4935645;29;20477;-63
2022/04/20 23:38:29;;;;;;;0.95;0.55;;;;;;;;;;4935207;29;20482;-67
2022/04/20 23:40:56;;;;;;;0.68;0.50;;;;;;;;;;4935520;29;20051;-66
2022/04/20 23:43:22;;;;;;;0.60;0.55;;;;;;;;;;4935399;29;20079;-65
2022/04/20 23:45:49;;;;;;;0.85;0.55;;;;;;;;;;4934731;29;20056;-65
2022/04/20 23:48:15;;;;;;;0.60;0.55;;;;;;;;;;4934698;29;20553;-68
2022/04/20 23:50:48;;;;;;;2.05;0.50;;;;;;;;;;4933697;29;20096;-64
2022/04/20 23:53:16;;;;;;;0.77;0.63;;;;;;;;;;4934257;29;20044;-65
2022/04/20 23:55:44;;;;;;;1.00;0.73;;;;;;;;;;4937685;29;20083;-64
2022/04/20 23:58:12;;;;;;;1.10;0.52;;;;;;;;;;4937879;29;20048;-68
